Time;durP1;ratioP1;P1;durP2;ratioP2;P2;SDS_P1;SDS_P2;PMS_P1;PMS_P2;Temp;Humidity;BMP_temperature;BMP_pressure;BME280_temperature;BME280_humidity;BME280_pressure;Samples;Min_cycle;Max_cycle;Signal;HPM_P1;HPM_P2
2022/03/08 00:02:25;;;;;;;32.78;17.33;;;;;;;0.14;55.51;100720.09;5073955;28;20135;-71
2022/03/08 00:04:53;;;;;;;36.20;18.52;;;;;;;0.22;55.11;100720.88;5073880;28;20048;-72
2022/03/08 00:07:21;;;;;;;34.22;17.10;;;;;;;0.22;54.94;100723.50;5053766;28;20041;-72
2022/03/08 00:09:51;;;;;;;31.88;16.95;;;;;;;0.27;55.05;100725.19;5053359;28;20411;-71
2022/03/08 00:12:19;;;;;;;35.92;18.15;;;;;;;0.25;54.99;100715.59;5053860;28;20124;-70
2022/03/08 00:14:47;;;;;;;34.13;16.48;;;;;;;0.28;54.70;100715.56;5068883;28;20041;-71
2022/03/08 00:17:20;;;;;;;32.60;16.90;;;;;;;0.22;54.73;100711.25;5073478;28;20083;-71
2022/03/08 00:19:51;;;;;;;29.73;15.85;;;;;;;0.20;54.83;100717.41;5073443;28;20048;-75
2022/03/08 00:22:19;;;;;;;31.95;15.90;;;;;;;0.19;54.34;100705.16;5109792;28;20059;-74
2022/03/08 00:24:48;;;;;;;33.30;15.35;;;;;;;0.17;54.72;100704.31;5114497;28;20365;-75
2022/03/08 00:27:17;;;;;;;33.15;15.75;;;;;;;0.27;54.23;100700.69;5114021;28;20043;-77
2022/03/08 00:29:46;;;;;;;27.17;14.35;;;;;;;0.18;54.27;100703.41;5114362;28;20040;-75
2022/03/08 00:32:14;;;;;;;31.55;15.23;;;;;;;0.13;54.70;100697.38;5105614;28;20040;-74
2022/03/08 00:34:42;;;;;;;32.83;15.77;;;;;;;0.14;54.55;100691.22;5093923;28;20470;-75
2022/03/08 00:37:11;;;;;;;29.73;15.02;;;;;;;0.07;54.56;100694.78;5093664;28;20067;-75
2022/03/08 00:39:39;;;;;;;30.60;15.73;;;;;;;0.09;54.57;100687.78;5093520;28;20051;-75
2022/03/08 00:42:11;;;;;;;29.65;15.23;;;;;;;0.02;54.92;100688.75;5093497;28;20071;-74
2022/03/08 00:44:41;;;;;;;27.88;14.85;;;;;;;0.03;55.17;100693.09;5093140;28;20478;-75
2022/03/08 00:47:11;;;;;;;31.27;15.57;;;;;;;0.01;55.24;100689.63;5093643;28;20123;-75
2022/03/08 00:49:40;;;;;;;30.95;15.70;;;;;;;0.05;55.05;100691.31;5093125;28;20040;-75
2022/03/08 00:52:10;;;;;;;31.10;15.35;;;;;;;-0.22;55.66;100690.69;5098820;28;20047;-75
2022/03/08 00:54:38;;;;;;;27.67;15.20;;;;;;;-0.12;55.93;100692.34;5113701;28;20051;-75
2022/03/08 00:57:07;;;;;;;29.35;15.57;;;;;;;-0.16;55.90;100693.28;5113950;28;20035;-75
2022/03/08 00:59:35;;;;;;;29.00;14.77;;;;;;;-0.11;55.57;100699.34;5113589;28;20089;-75
2022/03/08 01:02:05;;;;;;;30.55;14.80;;;;;;;-0.16;56.00;100695.03;5113843;28;20113;-74
2022/03/08 01:04:33;;;;;;;31.55;15.38;;;;;;;-0.13;56.50;100692.38;5113537;28;20071;-74
2022/03/08 01:07:02;;;;;;;29.58;15.00;;;;;;;-0.23;56.34;100694.22;5113423;28;20040;-74
2022/03/08 01:09:30;;;;;;;29.90;14.85;;;;;;;-0.26;56.38;100685.50;5113020;28;20047;-75
2022/03/08 01:11:59;;;;;;;27.85;15.00;;;;;;;-0.28;56.77;100682.91;5113445;28;20435;-73
2022/03/08 01:14:27;;;;;;;27.45;14.32;;;;;;;-0.26;56.59;100681.13;5113106;28;20066;-75
2022/03/08 01:16:55;;;;;;;29.13;15.20;;;;;;;-0.24;57.04;100679.38;5113727;28;20066;-75
2022/03/08 01:19:25;;;;;;;29.27;14.95;;;;;;;-0.25;57.13;100682.88;5112929;28;20040;-75
2022/03/08 01:21:53;;;;;;;30.85;14.02;;;;;;;-0.30;57.21;100682.91;5113409;28;20051;-75
2022/03/08 01:24:22;;;;;;;28.45;14.18;;;;;;;-0.39;57.48;100675.13;5113013;28;20039;-75
2022/03/08 01:26:50;;;;;;;28.33;14.60;;;;;;;-0.32;57.38;100681.19;5113435;28;20051;-75
2022/03/08 01:29:18;;;;;;;26.85;13.45;;;;;;;-0.34;57.62;100667.22;5113241;28;20061;-75
2022/03/08 01:31:47;;;;;;;25.77;13.25;;;;;;;-0.56;58.77;100670.94;5113486;28;20388;-75
2022/03/08 01:34:15;;;;;;;26.27;12.80;;;;;;;-0.54;58.42;100675.25;5113161;28;20096;-75
2022/03/08 01:36:45;;;;;;;25.15;12.65;;;;;;;-0.52;58.69;100673.50;5113051;28;20446;-75
2022/03/08 01:39:13;;;;;;;22.83;12.48;;;;;;;-0.43;58.16;100677.78;5113451;28;20040;-75
2022/03/08 01:41:42;;;;;;;22.80;11.98;;;;;;;-0.41;58.23;100676.03;5112781;28;20044;-76
2022/03/08 01:44:11;;;;;;;20.95;11.77;;;;;;;-0.37;58.16;100683.00;5113168;28;20061;-76
2022/03/08 01:46:40;;;;;;;23.55;12.10;;;;;;;-0.33;58.19;100677.69;5112712;28;20595;-76
2022/03/08 01:49:09;;;;;;;24.67;12.23;;;;;;;-0.49;58.78;100685.69;5113079;28;20058;-75
2022/03/08 01:51:39;;;;;;;23.48;12.30;;;;;;;-0.59;59.00;100675.28;5113001;28;20039;-74
2022/03/08 01:54:10;;;;;;;21.85;12.65;;;;;;;-0.70;60.07;100689.34;5113369;28;20443;-75
2022/03/08 01:56:39;;;;;;;26.75;13.02;;;;;;;-0.50;59.46;100676.09;5113020;28;20046;-75
2022/03/08 01:59:07;;;;;;;24.23;13.15;;;;;;;-0.54;59.66;100677.03;5113172;28;20057;-74
2022/03/08 02:01:38;;;;;;;24.30;12.93;;;;;;;-0.51;59.39;100685.72;5112691;28;20392;-75
2022/03/08 02:04:06;;;;;;;23.23;13.02;;;;;;;-0.52;59.78;100678.75;5113022;28;20443;-74
2022/03/08 02:06:35;;;;;;;24.35;12.60;;;;;;;-0.54;59.90;100677.88;5112569;28;20400;-75
2022/03/08 02:09:03;;;;;;;28.20;12.25;;;;;;;-0.60;59.96;100675.31;5095034;28;20393;-74
2022/03/08 02:11:34;;;;;;;25.98;12.30;;;;;;;-0.57;60.34;100675.31;5109764;28;20048;-74
2022/03/08 02:14:02;;;;;;;24.48;12.07;;;;;;;-0.68;60.69;100672.72;5092857;28;20388;-75
2022/03/08 02:16:30;;;;;;;23.13;12.85;;;;;;;-0.92;61.55;100683.41;5092394;28;20489;-76
2022/03/08 02:18:59;;;;;;;23.58;12.65;;;;;;;-0.96;61.52;100682.56;5092393;28;20499;-75
2022/03/08 02:21:34;;;;;;;24.25;12.52;;;;;;;-0.98;61.79;100679.06;5092166;28;20413;-76
2022/03/08 02:24:02;;;;;;;22.38;12.20;;;;;;;-0.96;61.58;100677.34;5092824;28;20230;-75
2022/03/08 02:26:31;;;;;;;24.17;12.70;;;;;;;-1.00;61.57;100679.97;5074269;28;20132;-74
2022/03/08 02:29:00;;;;;;;26.48;13.48;;;;;;;-0.96;61.50;100676.47;5092473;28;20094;-75
2022/03/08 02:31:28;;;;;;;22.10;12.50;;;;;;;-0.87;61.40;100676.38;5092650;28;20050;-75
2022/03/08 02:33:57;;;;;;;22.88;11.93;;;;;;;-0.85;61.26;100677.25;5096243;28;20044;-75
2022/03/08 02:36:32;;;;;;;27.05;13.07;;;;;;;-0.88;61.57;100685.13;5095938;28;20078;-76
2022/03/08 02:39:01;;;;;;;27.50;13.10;;;;;;;-0.99;61.83;100684.31;5077708;28;20075;-76
2022/03/08 02:41:29;;;;;;;21.83;12.35;;;;;;;-1.13;62.45;100683.53;5095730;28;20048;-77
2022/03/08 02:43:57;;;;;;;25.25;12.07;;;;;;;-1.19;62.91;100680.06;5096040;28;20136;-76
2022/03/08 02:46:25;;;;;;;24.58;12.80;;;;;;;-1.06;62.49;100685.22;5095702;28;20044;-83
2022/03/08 02:48:54;;;;;;;27.65;13.07;;;;;;;-1.17;62.90;100691.38;5095545;28;20051;-78
2022/03/08 02:51:22;;;;;;;25.42;12.55;;;;;;;-1.22;63.21;100697.56;5077715;28;20048;-77
2022/03/08 02:53:51;;;;;;;23.05;12.40;;;;;;;-1.30;63.65;100696.72;5095852;28;20044;-76
2022/03/08 02:56:21;;;;;;;24.67;13.20;;;;;;;-1.39;64.13;100697.63;5095865;28;20124;-75
2022/03/08 02:58:49;;;;;;;23.00;13.13;;;;;;;-1.44;64.35;100694.16;5095086;28;20052;-75
2022/03/08 03:01:18;;;;;;;22.88;12.00;;;;;;;-1.26;63.52;100693.19;5095750;28;20487;-76
2022/03/08 03:03:46;;;;;;;22.13;11.18;;;;;;;-1.30;63.87;100689.72;5095107;28;20908;-78
2022/03/08 03:06:14;;;;;;;22.52;12.85;;;;;;;-1.07;62.94;100693.97;5095576;28;20036;-79
2022/03/08 03:08:43;;;;;;;23.05;13.43;;;;;;;-0.75;62.01;100685.91;5095150;28;20079;-77
2022/03/08 03:11:12;;;;;;;20.98;12.43;;;;;;;-0.90;62.35;100697.34;5095526;28;20058;-74
2022/03/08 03:13:40;;;;;;;24.35;11.75;;;;;;;-1.06;62.78;100696.59;5095185;28;20085;-74
2022/03/08 03:16:11;;;;;;;24.88;12.95;;;;;;;-1.20;63.76;100693.16;5095496;28;20214;-74
2022/03/08 03:18:39;;;;;;;21.75;12.57;;;;;;;-1.09;62.97;100690.47;5094983;28;20055;-74
2022/03/08 03:21:07;;;;;;;22.83;12.63;;;;;;;-0.96;62.88;100689.56;5095024;28;20139;-74
2022/03/08 03:23:35;;;;;;;25.73;13.20;;;;;;;-1.12;63.67;100690.50;5094914;28;20044;-74
2022/03/08 03:26:03;;;;;;;23.70;12.80;;;;;;;-1.22;64.23;100682.72;5095364;28;20051;-74
2022/03/08 03:28:35;;;;;;;21.30;11.70;;;;;;;-1.36;64.49;100681.91;5094596;28;20044;-74
2022/03/08 03:31:03;;;;;;;25.63;13.02;;;;;;;-1.43;64.97;100682.81;5095051;28;20139;-74
2022/03/08 03:33:32;;;;;;;23.80;12.93;;;;;;;-1.47;65.49;100694.16;5094772;28;20032;-74
2022/03/08 03:36:00;;;;;;;22.83;13.63;;;;;;;-1.58;66.26;100686.34;5076800;28;20127;-74
2022/03/08 03:38:30;;;;;;;28.02;13.00;;;;;;;-1.67;66.62;100689.00;5094681;28;20043;-75
2022/03/08 03:40:58;;;;;;;27.05;13.80;;;;;;;-1.82;67.28;100692.56;5094773;28;20482;-74
2022/03/08 03:43:26;;;;;;;26.02;13.40;;;;;;;-1.75;67.44;100693.38;5094617;28;20372;-74
2022/03/08 03:45:56;;;;;;;27.27;12.88;;;;;;;-1.85;67.25;100687.31;5094859;28;20040;-74
2022/03/08 03:48:25;;;;;;;26.15;13.35;;;;;;;-1.84;68.18;100694.28;5094399;28;20044;-78
2022/03/08 03:50:53;;;;;;;24.42;13.40;;;;;;;-1.76;68.07;100702.13;5094985;28;20075;-78
2022/03/08 03:53:21;;;;;;;27.15;13.80;;;;;;;-1.69;67.77;100701.22;5094361;28;20044;-78
2022/03/08 03:55:50;;;;;;;25.30;13.65;;;;;;;-1.64;67.94;100701.19;5094155;28;20533;-78
2022/03/08 03:58:18;;;;;;;23.40;13.07;;;;;;;-1.56;67.18;100709.91;5094613;28;20044;-78
2022/03/08 04:00:46;;;;;;;23.92;12.93;;;;;;;-1.57;67.35;100697.69;5094279;28;20089;-75
2022/03/08 04:03:18;;;;;;;25.73;14.18;;;;;;;-1.61;67.75;100702.06;5094211;28;20047;-76
2022/03/08 04:05:47;;;;;;;26.83;12.95;;;;;;;-1.48;67.46;100695.03;5094233;28;20093;-72
2022/03/08 04:08:20;;;;;;;25.08;13.68;;;;;;;-1.32;66.70;100699.34;5094371;28;20042;-73
2022/03/08 04:10:48;;;;;;;28.33;15.07;;;;;;;-1.29;66.68;100707.16;5094004;28;20036;-73
2022/03/08 04:13:19;;;;;;;29.10;15.25;;;;;;;-1.48;67.75;100698.53;5094111;28;20040;-73
2022/03/08 04:15:48;;;;;;;28.75;15.55;;;;;;;-1.59;68.34;100699.44;5093621;28;20055;-72
2022/03/08 04:18:18;;;;;;;28.80;16.27;;;;;;;-1.69;68.75;100700.34;5094120;28;20134;-72
2022/03/08 04:20:46;;;;;;;32.90;16.52;;;;;;;-1.62;68.06;100704.69;5093555;28;20118;-76
2022/03/08 04:23:14;;;;;;;32.10;15.50;;;;;;;-1.72;68.79;100703.88;5076307;28;20058;-76
2022/03/08 04:25:42;;;;;;;35.95;17.27;;;;;;;-1.63;68.23;100698.59;5093567;28;20131;-76
2022/03/08 04:28:11;;;;;;;34.83;17.45;;;;;;;-1.59;68.10;100702.94;5093953;28;20035;-74
2022/03/08 04:30:39;;;;;;;34.88;16.35;;;;;;;-1.48;67.53;100697.66;5093705;28;20047;-75
2022/03/08 04:33:07;;;;;;;30.98;15.43;;;;;;;-1.73;68.74;100699.50;5095018;28;20436;-75
2022/03/08 04:35:37;;;;;;;34.85;17.75;;;;;;;-1.96;70.07;100698.69;5093227;28;20540;-74
2022/03/08 04:38:06;;;;;;;35.05;16.50;;;;;;;-2.03;70.77;100700.41;5093847;28;20449;-74
2022/03/08 04:40:34;;;;;;;31.48;16.63;;;;;;;-2.17;71.62;100691.75;5093451;28;20051;-76
2022/03/08 04:43:02;;;;;;;31.05;15.40;;;;;;;-2.06;72.58;100692.59;5093826;28;20048;-74
2022/03/08 04:45:31;;;;;;;33.30;15.60;;;;;;;-1.90;72.08;100694.31;5093709;28;20044;-74
2022/03/08 04:47:59;;;;;;;31.38;15.60;;;;;;;-1.74;70.92;100695.13;5093753;28;20047;-74
2022/03/08 04:50:29;;;;;;;25.95;15.15;;;;;;;-1.74;70.40;100698.63;5093694;28;20040;-75
2022/03/08 04:52:59;;;;;;;31.25;15.00;;;;;;;-1.73;69.76;100692.53;5093045;28;20085;-74
2022/03/08 04:55:29;;;;;;;28.10;13.98;;;;;;;-1.79;70.10;100684.69;5092651;28;20382;-74
2022/03/08 04:57:57;;;;;;;27.92;14.82;;;;;;;-1.98;71.09;100680.38;5092974;28;20040;-75
2022/03/08 05:00:25;;;;;;;26.50;14.55;;;;;;;-2.00;70.96;100696.97;5093508;28;20443;-75
2022/03/08 05:02:53;;;;;;;26.95;14.70;;;;;;;-2.02;71.56;100690.00;5093128;28;20093;-73
2022/03/08 05:05:21;;;;;;;30.67;14.63;;;;;;;-1.94;71.22;100683.84;5093392;28;20105;-72
2022/03/08 05:07:50;;;;;;;28.95;14.30;;;;;;;-1.92;71.11;100682.13;5092756;28;20044;-73
2022/03/08 05:10:19;;;;;;;25.58;14.30;;;;;;;-1.90;71.12;100686.47;5092969;28;20477;-73
2022/03/08 05:12:48;;;;;;;25.75;14.10;;;;;;;-1.83;70.54;100685.59;5092728;28;20127;-73
2022/03/08 05:15:16;;;;;;;24.83;13.10;;;;;;;-1.78;70.49;100683.81;5092953;28;20047;-73
2022/03/08 05:17:44;;;;;;;30.52;14.07;;;;;;;-1.53;69.48;100688.97;5093008;28;20051;-74
2022/03/08 05:20:13;;;;;;;25.95;13.82;;;;;;;-1.61;69.73;100685.50;5093203;28;20039;-73
2022/03/08 05:22:41;;;;;;;24.35;14.35;;;;;;;-1.65;70.09;100694.22;5092997;28;20056;-74
2022/03/08 05:25:10;;;;;;;26.17;14.07;;;;;;;-1.61;69.56;100685.50;5092871;28;20044;-74
2022/03/08 05:27:41;;;;;;;27.63;14.93;;;;;;;-1.52;69.42;100685.47;5092809;28;20040;-72
2022/03/08 05:30:12;;;;;;;34.97;16.95;;;;;;;-1.64;69.97;100685.50;5093113;28;20044;-73
2022/03/08 05:32:41;;;;;;;36.22;17.65;;;;;;;-1.75;70.64;100689.03;5092874;28;20046;-72
2022/03/08 05:35:09;;;;;;;31.52;16.67;;;;;;;-1.55;69.40;100685.47;5074913;28;20051;-72
2022/03/08 05:37:41;;;;;;;34.20;16.45;;;;;;;-1.60;70.04;100692.47;5093281;28;20046;-72
2022/03/08 05:40:10;;;;;;;29.67;14.35;;;;;;;-1.45;69.05;100698.53;5101466;28;20377;-71
2022/03/08 05:42:43;;;;;;;23.58;14.10;;;;;;;-1.37;68.70;100698.47;5099770;28;20427;-83
2022/03/08 05:45:12;;;;;;;27.52;14.30;;;;;;;-1.28;68.78;100706.28;5111416;28;20047;-73
2022/03/08 05:47:42;;;;;;;29.67;14.90;;;;;;;-1.33;69.12;100707.19;5086689;28;20051;-73
2022/03/08 05:50:12;;;;;;;28.67;14.65;;;;;;;-1.33;68.99;100702.84;5104022;28;20059;-71
2022/03/08 05:52:41;;;;;;;25.77;14.48;;;;;;;-1.32;69.18;100704.56;5099828;28;20046;-74
2022/03/08 05:55:09;;;;;;;27.35;14.48;;;;;;;-1.32;69.51;100703.72;5106245;28;20369;-73
2022/03/08 05:57:38;;;;;;;25.42;14.35;;;;;;;-1.05;68.04;100702.69;5096798;28;20481;-75
2022/03/08 06:00:10;;;;;;;27.35;14.98;;;;;;;-1.01;68.17;100693.94;5109447;28;20085;-75
2022/03/08 06:02:39;;;;;;;24.38;14.63;;;;;;;-0.94;67.57;100695.66;5105244;28;20043;-74
2022/03/08 06:05:10;;;;;;;31.35;15.15;;;;;;;-1.03;67.95;100700.94;5105386;28;20059;-72
2022/03/08 06:07:39;;;;;;;25.67;14.55;;;;;;;-0.88;67.74;100708.69;5110557;28;20047;-73
2022/03/08 06:10:09;;;;;;;24.52;15.13;;;;;;;-0.93;68.03;100713.09;5108511;28;20046;-73
2022/03/08 06:12:37;;;;;;;28.15;15.18;;;;;;;-0.89;67.94;100709.56;5105856;28;20553;-74
2022/03/08 06:15:08;;;;;;;29.63;16.05;;;;;;;-0.99;68.55;100719.22;5106603;28;20070;-74
2022/03/08 06:17:37;;;;;;;32.50;16.15;;;;;;;-1.01;69.20;100717.50;5108128;28;20040;-73
2022/03/08 06:20:06;;;;;;;31.73;17.08;;;;;;;-1.05;69.36;100718.41;5104292;28;20477;-73
2022/03/08 06:22:35;;;;;;;29.55;16.50;;;;;;;-0.89;68.31;100725.28;5107178;28;20548;-73
2022/03/08 06:25:04;;;;;;;40.83;17.45;;;;;;;-0.93;68.85;100731.44;5106633;28;20055;-76
2022/03/08 06:27:32;;;;;;;30.05;16.58;;;;;;;-0.88;68.72;100733.13;5105104;28;20426;-74
2022/03/08 06:30:04;;;;;;;29.08;16.42;;;;;;;-1.06;69.20;100732.34;5107568;28;20127;-73
2022/03/08 06:32:35;;;;;;;32.08;17.38;;;;;;;-1.14;69.62;100735.03;5107097;28;20080;-75
2022/03/08 06:35:05;;;;;;;33.50;17.38;;;;;;;-0.99;68.90;100739.31;5100919;28;20051;-71
2022/03/08 06:37:33;;;;;;;37.65;18.52;;;;;;;-0.95;68.49;100747.16;5095990;28;20075;-70
2022/03/08 06:40:01;;;;;;;36.40;18.90;;;;;;;-1.06;69.17;100742.81;5098255;28;20097;-70
2022/03/08 06:42:30;;;;;;;34.95;18.77;;;;;;;-0.85;68.16;100739.25;5079890;28;20055;-73
2022/03/08 06:44:58;;;;;;;40.85;19.20;;;;;;;-0.84;68.38;100746.22;5095526;28;20047;-79
2022/03/08 06:47:26;;;;;;;35.28;19.10;;;;;;;-0.76;67.75;100742.69;5106037;28;20071;-79
2022/03/08 06:49:57;;;;;;;37.58;19.42;;;;;;;-0.63;67.30;100746.09;5105168;28;20051;-81
2022/03/08 06:52:26;;;;;;;37.55;19.15;;;;;;;-0.48;66.46;100742.47;5099922;28;20165;-76
2022/03/08 06:54:54;;;;;;;35.70;18.83;;;;;;;-0.11;65.53;100754.41;5096766;28;20059;-75
2022/03/08 06:57:22;;;;;;;35.63;18.40;;;;;;;-0.12;64.85;100736.06;5110791;28;20397;-73
2022/03/08 06:59:51;;;;;;;34.85;18.13;;;;;;;-0.15;65.21;100744.84;5102695;28;20046;-75
2022/03/08 07:02:19;;;;;;;35.88;18.50;;;;;;;-0.24;65.86;100747.53;5106530;28;20044;-76
2022/03/08 07:04:48;;;;;;;30.02;16.63;;;;;;;-0.31;65.40;100749.31;5103197;28;20397;-79
2022/03/08 07:07:17;;;;;;;32.58;18.05;;;;;;;-0.26;65.68;100757.16;5098879;28;20477;-77
2022/03/08 07:09:46;;;;;;;35.10;17.55;;;;;;;-0.11;64.91;100756.16;5103451;28;20051;-79
2022/03/08 07:12:14;;;;;;;31.77;16.42;;;;;;;-0.14;64.38;100757.06;5109482;28;20112;-77
2022/03/08 07:14:42;;;;;;;35.33;17.40;;;;;;;-0.11;64.39;100764.03;5115766;28;20043;-75
2022/03/08 07:17:10;;;;;;;30.17;16.52;;;;;;;0.09;63.21;100748.09;5109522;28;20480;-77
2022/03/08 07:19:39;;;;;;;33.22;17.10;;;;;;;0.10;63.16;100757.75;5105099;28;20100;-76
2022/03/08 07:22:08;;;;;;;33.10;17.27;;;;;;;0.10;63.44;100752.50;5096742;28;20056;-74
2022/03/08 07:24:37;;;;;;;33.50;17.42;;;;;;;0.12;63.21;100753.34;5095764;28;20040;-74
2022/03/08 07:27:08;;;;;;;36.30;17.65;;;;;;;0.15;63.31;100756.78;5094596;28;20063;-70
2022/03/08 07:29:36;;;;;;;33.65;18.60;;;;;;;0.12;63.87;100748.97;5094628;28;20040;-71
2022/03/08 07:32:05;;;;;;;34.25;17.58;;;;;;;0.15;63.10;100753.31;5094367;28;20040;-71
2022/03/08 07:34:34;;;;;;;32.55;18.25;;;;;;;0.10;63.60;100744.63;5104075;28;20097;-69
2022/03/08 07:37:04;;;;;;;36.15;19.10;;;;;;;0.26;63.36;100743.56;5102006;28;20046;-68
2022/03/08 07:39:32;;;;;;;34.40;18.85;;;;;;;0.38;63.12;100748.69;5112018;28;20046;-71
2022/03/08 07:42:02;;;;;;;36.50;19.60;;;;;;;0.27;64.08;100751.41;5099821;28;20036;-74
2022/03/08 07:44:31;;;;;;;34.33;19.38;;;;;;;0.40;62.89;100752.19;5105912;28;20040;-71
2022/03/08 07:47:01;;;;;;;40.78;20.92;;;;;;;0.59;62.71;100760.72;5105762;28;20036;-72
2022/03/08 07:49:29;;;;;;;40.80;20.00;;;;;;;0.61;62.40;100761.56;5101817;28;20043;-71
2022/03/08 07:51:58;;;;;;;40.05;20.08;;;;;;;0.75;62.07;100766.66;5110996;28;20059;-73
2022/03/08 07:54:26;;;;;;;39.33;19.65;;;;;;;0.84;61.98;100769.16;5114594;28;20043;-71
2022/03/08 07:56:54;;;;;;;27.90;15.95;;;;;;;0.83;61.68;100757.78;5113875;28;20128;-72
2022/03/08 07:59:26;;;;;;;31.27;18.50;;;;;;;0.83;61.68;100756.91;5114239;28;20035;-71
2022/03/08 08:01:54;;;;;;;30.75;16.73;;;;;;;1.00;61.01;100754.97;5096077;28;20399;-72
2022/03/08 08:04:23;;;;;;;34.95;17.05;;;;;;;1.22;60.64;100752.03;5114511;28;20477;-68
2022/03/08 08:06:52;;;;;;;32.63;17.48;;;;;;;1.48;59.54;100747.28;5094563;28;20047;-75
2022/03/08 08:09:20;;;;;;;30.95;17.40;;;;;;;1.47;60.39;100748.16;5105869;28;20412;-72
2022/03/08 08:11:52;;;;;;;35.55;18.08;;;;;;;1.50;59.17;100736.72;5093979;28;20040;-73
2022/03/08 08:14:21;;;;;;;29.02;16.15;;;;;;;1.61;59.14;100733.03;5093684;28;20097;-75
2022/03/08 08:16:53;;;;;;;34.85;18.25;;;;;;;1.57;59.03;100741.88;5109406;28;20115;-68
2022/03/08 08:19:22;;;;;;;30.88;17.27;;;;;;;1.66;59.03;100736.47;5114508;28;20057;-68
2022/03/08 08:21:52;;;;;;;31.65;18.25;;;;;;;1.86;58.65;100748.44;5114413;28;20052;-68
2022/03/08 08:24:20;;;;;;;36.03;17.30;;;;;;;2.11;57.30;100744.47;5096070;28;20069;-68
2022/03/08 08:26:48;;;;;;;32.63;16.42;;;;;;;2.28;57.02;100734.50;5114557;28;20050;-68
2022/03/08 08:29:16;;;;;;;32.08;16.02;;;;;;;2.33;57.19;100738.84;5095082;28;20128;-68
2022/03/08 08:31:45;;;;;;;26.10;14.77;;;;;;;2.36;56.36;100733.50;5114453;28;20543;-68
2022/03/08 08:34:15;;;;;;;25.48;14.93;;;;;;;2.43;55.98;100740.38;5113804;28;20092;-68
2022/03/08 08:36:46;;;;;;;22.13;13.57;;;;;;;2.41;56.83;100735.13;5114373;28;20517;-68
2022/03/08 08:39:21;;;;;;;28.90;13.63;;;;;;;2.49;56.08;100741.13;5113626;28;20089;-67
2022/03/08 08:41:49;;;;;;;22.85;13.52;;;;;;;2.44;55.76;100736.84;5114250;28;20036;-67
2022/03/08 08:44:19;;;;;;;23.27;13.25;;;;;;;2.69;55.96;100738.09;5113716;28;20047;-67
2022/03/08 08:46:47;;;;;;;25.63;13.02;;;;;;;2.87;55.16;100736.84;5114537;28;20134;-67
2022/03/08 08:49:19;;;;;;;24.55;13.75;;;;;;;2.87;55.43;100734.22;5113765;28;20538;-68
2022/03/08 08:51:47;;;;;;;23.25;12.85;;;;;;;2.97;54.85;100737.53;5114074;28;20438;-68
2022/03/08 08:54:16;;;;;;;24.27;13.60;;;;;;;3.04;54.82;100728.59;5095422;28;20492;-69
2022/03/08 08:56:44;;;;;;;23.10;13.40;;;;;;;3.18;54.18;100726.50;5114173;28;20096;-68
2022/03/08 08:59:12;;;;;;;21.52;13.02;;;;;;;3.27;54.10;100731.56;5113773;28;20039;-69
2022/03/08 09:01:41;;;;;;;20.25;12.50;;;;;;;3.30;53.20;100730.66;5113767;28;20479;-68
2022/03/08 09:04:10;;;;;;;20.48;12.07;;;;;;;3.30;53.01;100726.25;5113599;28;20036;-69
2022/03/08 09:06:41;;;;;;;24.08;12.13;;;;;;;3.28;53.60;100722.78;5113617;28;20140;-68
2022/03/08 09:09:09;;;;;;;23.05;12.18;;;;;;;3.43;53.41;100730.31;5113692;28;20048;-69
2022/03/08 09:11:38;;;;;;;24.85;12.57;;;;;;;3.49;52.68;100731.97;5113787;28;20096;-68
2022/03/08 09:14:06;;;;;;;23.88;12.10;;;;;;;3.56;52.33;100716.84;5113389;28;20067;-69
2022/03/08 09:16:35;;;;;;;21.17;12.18;;;;;;;3.68;52.28;100716.56;5113890;28;20050;-69
2022/03/08 09:19:03;;;;;;;21.88;12.45;;;;;;;3.71;52.32;100727.03;5113545;28;20425;-69
2022/03/08 09:21:32;;;;;;;24.75;13.77;;;;;;;3.64;52.13;100720.16;5113325;28;20055;-67
2022/03/08 09:24:01;;;;;;;20.55;13.23;;;;;;;3.60;52.36;100723.78;5113299;28;20422;-69
2022/03/08 09:26:29;;;;;;;24.17;13.02;;;;;;;3.67;52.52;100722.75;5113697;28;20392;-68
2022/03/08 09:28:58;;;;;;;23.88;12.68;;;;;;;3.69;52.29;100718.31;5095462;28;20454;-79
2022/03/08 09:31:26;;;;;;;23.42;13.68;;;;;;;3.64;52.97;100721.03;5113631;28;20052;-69
2022/03/08 09:33:55;;;;;;;25.25;14.23;;;;;;;3.87;52.41;100717.84;5113749;28;20162;-68
2022/03/08 09:36:23;;;;;;;22.30;12.65;;;;;;;3.93;52.03;100707.13;5114806;28;20097;-69
2022/03/08 09:38:51;;;;;;;22.98;11.45;;;;;;;4.10;51.48;100716.38;5113719;28;20565;-68
2022/03/08 09:41:23;;;;;;;22.02;11.82;;;;;;;4.11;51.19;100718.97;5115359;28;20050;-69
2022/03/08 09:43:52;;;;;;;22.40;13.13;;;;;;;4.05;51.63;100710.34;5117838;28;20447;-69
2022/03/08 09:46:20;;;;;;;18.48;10.80;;;;;;;4.22;50.89;100713.41;5117467;28;20392;-69
2022/03/08 09:48:49;;;;;;;18.23;10.27;;;;;;;4.11;50.32;100699.63;5117668;28;20100;-68
2022/03/08 09:51:18;;;;;;;17.40;9.57;;;;;;;4.20;50.16;100699.38;5117382;28;20048;-68
2022/03/08 09:53:52;;;;;;;15.63;7.95;;;;;;;4.53;47.81;100711.66;5117549;28;20046;-68
2022/03/08 09:56:22;;;;;;;12.50;6.90;;;;;;;4.52;47.58;100702.00;5117389;28;20104;-68
2022/03/08 09:58:50;;;;;;;13.82;7.45;;;;;;;4.71;47.23;100710.25;5117658;28;20042;-68
2022/03/08 10:01:19;;;;;;;10.43;6.72;;;;;;;4.53;46.81;100714.28;5118064;28;20040;-68
2022/03/08 10:03:51;;;;;;;13.52;7.15;;;;;;;4.63;46.70;100709.59;5117272;28;20131;-68
2022/03/08 10:06:19;;;;;;;14.20;6.45;;;;;;;4.83;45.65;100703.78;5117158;28;20396;-68
2022/03/08 10:08:48;;;;;;;10.65;5.93;;;;;;;4.84;44.75;100706.38;5117222;28;20051;-68
2022/03/08 10:11:18;;;;;;;12.98;6.38;;;;;;;4.88;45.18;100709.78;5116946;28;20046;-68
2022/03/08 10:13:52;;;;;;;11.77;6.38;;;;;;;4.86;45.19;100704.53;5116950;28;20115;-68
2022/03/08 10:16:24;;;;;;;9.25;5.40;;;;;;;4.85;43.13;100704.59;5116962;28;20637;-68
2022/03/08 10:18:54;;;;;;;12.70;6.43;;;;;;;4.81;44.31;100697.66;5117062;28;20045;-68
2022/03/08 10:21:27;;;;;;;8.82;5.03;;;;;;;4.96;42.10;100699.84;5116481;28;20067;-68
2022/03/08 10:23:57;;;;;;;8.32;4.57;;;;;;;5.31;40.35;100705.84;5116741;28;20040;-68
2022/03/08 10:26:29;;;;;;;6.80;4.18;;;;;;;5.55;39.58;100699.75;5116657;28;20049;-68
2022/03/08 10:29:00;;;;;;;8.73;4.30;;;;;;;5.45;39.30;100695.69;5116741;28;20122;-68
2022/03/08 10:31:28;;;;;;;9.15;4.22;;;;;;;5.66;38.74;100694.13;5116832;28;20085;-68
2022/03/08 10:34:05;;;;;;;7.78;4.22;;;;;;;5.78;38.22;100698.13;5116702;28;20040;-68
2022/03/08 10:36:35;;;;;;;8.93;5.22;;;;;;;5.84;39.01;100685.56;5116659;28;20043;-68
2022/03/08 10:39:10;;;;;;;9.80;4.32;;;;;;;6.01;38.70;100679.72;5116519;28;20080;-70
2022/03/08 10:41:47;;;;;;;7.75;3.95;;;;;;;6.00;35.97;100694.75;5116362;28;20060;-68
2022/03/08 10:44:19;;;;;;;7.57;3.92;;;;;;;5.86;35.90;100688.16;5116325;28;20040;-68
2022/03/08 10:47:09;;;;;;;8.55;4.45;;;;;;;6.17;37.62;100683.56;5116567;28;20097;-68
2022/03/08 10:49:49;;;;;;;9.35;5.20;;;;;;;6.12;38.32;100692.59;5112491;28;20483;-68
2022/03/08 10:52:18;;;;;;;9.35;4.95;;;;;;;6.20;38.03;100688.75;5114992;28;20039;-68
2022/03/08 10:54:46;;;;;;;9.93;4.47;;;;;;;6.39;36.84;100688.97;5116641;28;20079;-68
2022/03/08 10:57:14;;;;;;;7.18;4.07;;;;;;;6.26;35.30;100675.28;5115825;28;20050;-68
2022/03/08 11:00:11;;;;;;;8.98;4.65;;;;;;;6.34;35.57;100687.41;5115831;28;20039;-68
2022/03/08 11:02:51;;;;;;;7.45;4.35;;;;;;;6.27;35.65;100687.63;5116179;28;20130;-68
2022/03/08 11:05:22;;;;;;;7.18;4.38;;;;;;;6.52;34.85;100692.03;5116015;28;20071;-68
2022/03/08 11:07:50;;;;;;;8.68;4.50;;;;;;;6.66;33.69;100684.47;5116078;28;20047;-68
2022/03/08 11:10:20;;;;;;;7.18;4.22;;;;;;;6.62;33.83;100677.53;5115775;28;20046;-68
2022/03/08 11:12:48;;;;;;;7.95;4.18;;;;;;;6.91;33.14;100678.22;5115903;28;20040;-68
2022/03/08 11:15:19;;;;;;;9.00;4.40;;;;;;;6.84;32.92;100667.81;5115738;28;20040;-69
2022/03/08 11:17:50;;;;;;;10.73;4.85;;;;;;;6.79;34.31;100671.59;5116069;28;20047;-68
2022/03/08 11:20:21;;;;;;;10.32;4.88;;;;;;;6.78;35.59;100668.09;5115553;28;20130;-68
2022/03/08 11:22:52;;;;;;;8.68;4.95;;;;;;;6.77;35.34;100673.44;5115925;28;20087;-67
2022/03/08 11:25:23;;;;;;;7.43;4.25;;;;;;;6.70;35.62;100664.00;5115695;28;20051;-68